createdAt,value
2018-01-14T02:40:29.246Z,8.28
2018-01-14T02:41:18.280Z,8.25
2018-01-14T02:42:06.927Z,8.22
2018-01-14T02:44:25.738Z,8.29
2018-01-14T02:45:14.094Z,8.22
2018-01-14T02:46:02.984Z,8.33
2018-01-14T02:46:51.220Z,8.26
2018-01-14T02:47:39.741Z,8.26
2018-01-14T02:48:29.448Z,8.25
2018-01-14T02:49:19.374Z,8.22
2018-01-14T02:50:05.421Z,8.05
2018-01-14T02:50:49.388Z,8.19
2018-01-14T02:51:29.918Z,8.12
2018-01-14T02:52:10.486Z,8.1
2018-01-14T02:52:50.988Z,8.11
2018-01-14T02:53:31.519Z,8.18
2018-01-14T02:54:12.089Z,8.16
2018-01-14T02:54:52.622Z,8.18
2018-01-14T02:55:33.193Z,8.19
2018-01-14T02:56:13.731Z,8.25
2018-01-14T02:56:54.257Z,8.28
2018-01-14T02:57:34.811Z,8.25
2018-01-14T02:58:15.310Z,8.33
2018-01-14T02:58:55.829Z,8.16
2018-01-14T02:59:36.479Z,8.15
2018-01-14T03:00:17.072Z,8.15
2018-01-14T03:00:57.572Z,8.2
2018-01-14T03:01:38.094Z,8.3
2018-01-14T03:02:18.652Z,8.2
2018-01-14T03:02:59.196Z,8.18
2018-01-14T03:03:39.748Z,8.3
2018-01-14T03:04:20.285Z,8.37
2018-01-14T03:05:00.782Z,8.29
2018-01-14T03:05:41.311Z,8.16
2018-01-14T03:06:21.869Z,8.05
2018-01-14T03:07:02.404Z,8.04
2018-01-14T03:07:42.914Z,8.11
2018-01-14T03:08:23.496Z,8.15
2018-01-14T03:09:04.185Z,8.02
2018-01-14T03:09:44.698Z,8.11
2018-01-14T03:10:25.265Z,8.12
2018-01-14T03:11:05.825Z,8.15
2018-01-14T03:11:46.397Z,8.15
2018-01-14T03:12:26.989Z,8.19
2018-01-14T03:13:07.586Z,8.16
2018-01-14T03:13:48.122Z,8.28
2018-01-14T03:14:28.704Z,8.3
2018-01-14T03:15:09.190Z,8.37
2018-01-14T03:15:49.708Z,8.33
2018-01-14T03:16:30.215Z,8.3
2018-01-14T03:17:10.785Z,8.26
2018-01-14T03:17:51.418Z,8.19
2018-01-14T03:18:31.899Z,8.26
2018-01-14T03:19:12.475Z,8.3
2018-01-14T03:19:53.084Z,8.11
2018-01-14T03:20:33.636Z,8.19
2018-01-14T03:21:14.201Z,8.15
2018-01-14T03:21:54.710Z,8.23
2018-01-14T03:22:35.260Z,8.22
2018-01-14T03:23:15.800Z,8.1
2018-01-14T03:23:56.291Z,8.16
2018-01-14T03:24:36.837Z,8.16
2018-01-14T03:25:17.328Z,8.18
2018-01-14T03:25:57.850Z,8.18
2018-01-14T03:26:38.376Z,8.19
2018-01-14T03:27:18.917Z,8.19
2018-01-14T03:27:59.482Z,8.15
2018-01-14T03:28:40.003Z,8.22
2018-01-14T03:29:20.556Z,8.23
2018-01-14T03:30:01.095Z,8.25
2018-01-14T03:30:41.665Z,8.1
2018-01-14T03:31:22.140Z,8.01
2018-01-14T03:32:02.701Z,8.05
2018-01-14T03:32:43.253Z,8.18
2018-01-14T03:33:23.773Z,8.12
2018-01-14T03:34:04.263Z,8.1
2018-01-14T03:34:44.790Z,8.15
2018-01-14T03:35:25.361Z,8.23
2018-01-14T03:36:05.874Z,8.16
2018-01-14T03:36:46.436Z,8.1
2018-01-14T03:37:26.932Z,8.05
2018-01-14T03:38:07.479Z,8
2018-01-14T03:38:48.003Z,8.12
2018-01-14T03:39:28.531Z,8.11
2018-01-14T03:40:09.109Z,8.18
2018-01-14T03:40:49.624Z,8.1
2018-01-14T03:41:30.126Z,8.07
2018-01-14T03:42:10.712Z,8.05
2018-01-14T03:42:51.311Z,8.01
2018-01-14T03:43:31.836Z,8.07
2018-01-14T03:44:12.359Z,8.16
2018-01-14T03:44:52.932Z,8.12
2018-01-14T03:45:33.491Z,8.15
2018-01-14T03:46:14.040Z,8.05
2018-01-14T03:46:54.582Z,8.04
2018-01-14T03:47:35.138Z,8.1
2018-01-14T03:48:15.732Z,8.19
2018-01-14T03:48:56.293Z,8.16
2018-01-14T03:49:36.794Z,8.18
2018-01-14T03:50:17.413Z,8.29
2018-01-14T03:50:57.893Z,8.23
2018-01-14T03:51:38.452Z,8.23
2018-01-14T03:52:19.107Z,8.25
2018-01-14T03:52:59.674Z,8.25
2018-01-14T03:53:40.207Z,8.08
2018-01-14T03:54:20.721Z,8.18
2018-01-14T03:55:01.275Z,8.12
2018-01-14T03:55:41.772Z,8.04
2018-01-14T03:56:22.334Z,8.11
2018-01-14T03:57:02.869Z,8.1
2018-01-14T03:57:43.424Z,8
2018-01-14T03:58:24.006Z,8.19
2018-01-14T03:59:04.603Z,8.15
2018-01-14T03:59:45.123Z,8.05
2018-01-14T04:00:25.683Z,8.15
2018-01-14T04:01:06.280Z,8.23
2018-01-14T04:01:46.805Z,8.25
2018-01-14T04:02:27.417Z,8.18
2018-01-14T04:03:07.966Z,8.26
2018-01-14T04:03:48.487Z,8.26
2018-01-14T04:04:28.981Z,8.33
2018-01-14T04:05:09.538Z,8.15
2018-01-14T04:05:50.118Z,8.08
2018-01-14T04:06:30.654Z,8.11
2018-01-14T04:07:11.163Z,8
2018-01-14T04:07:51.712Z,8
2018-01-14T04:08:32.314Z,8.04
2018-01-14T04:09:12.882Z,8.05
2018-01-14T04:09:53.427Z,8.12
2018-01-14T04:10:33.969Z,8.15
2018-01-14T04:11:14.562Z,8.05
2018-01-14T04:11:55.026Z,8.04
2018-01-14T04:12:35.566Z,8.04
2018-01-14T04:13:16.155Z,8.08
2018-01-14T04:13:56.710Z,8.01
2018-01-14T04:14:37.201Z,8.07
2018-01-14T04:15:17.785Z,8.15
2018-01-14T04:15:58.284Z,8.05
2018-01-14T04:16:38.921Z,8.08
2018-01-14T04:17:19.418Z,8.07
2018-01-14T04:17:59.984Z,8.07
2018-01-14T04:18:40.578Z,8
2018-01-14T04:19:21.103Z,8.04
2018-01-14T04:20:01.663Z,8.1
2018-01-14T04:20:42.137Z,8.07
2018-01-14T04:21:22.694Z,8.15
2018-01-14T04:22:03.314Z,8.15
2018-01-14T04:22:43.843Z,8.19
2018-01-14T04:23:24.353Z,8.18
2018-01-14T04:24:04.992Z,8.15
2018-01-14T04:24:45.527Z,8.12
2018-01-14T04:25:26.061Z,8.12
2018-01-14T04:26:06.576Z,8.08
2018-01-14T04:26:47.087Z,8.11
2018-01-14T04:27:27.647Z,8.04
2018-01-14T04:28:08.239Z,8.12
2018-01-14T04:28:48.758Z,8.11
2018-01-14T04:29:29.315Z,8.12
2018-01-14T04:30:09.869Z,8.11
2018-01-14T04:30:50.372Z,8.07
2018-01-14T04:31:30.908Z,8.1
2018-01-14T04:32:11.451Z,8.02
2018-01-14T04:32:51.989Z,8.05
2018-01-14T04:33:32.555Z,8.1
2018-01-14T04:34:13.078Z,8.11
2018-01-14T04:34:53.673Z,8.05
2018-01-14T04:35:34.282Z,8.08
2018-01-14T04:36:14.786Z,8.1
2018-01-14T04:36:55.365Z,8.08
2018-01-14T04:37:35.799Z,8.1
2018-01-14T04:38:16.417Z,8.1
2018-01-14T04:38:56.931Z,8.05
2018-01-14T04:39:37.494Z,8.07
2018-01-14T04:40:18.066Z,7.97
2018-01-14T04:40:58.573Z,8.02
2018-01-14T04:41:39.127Z,8.05
2018-01-14T04:42:19.643Z,8
2018-01-14T04:43:00.176Z,8.07
2018-01-14T04:43:40.741Z,7.95
2018-01-14T04:44:21.276Z,7.89
2018-01-14T04:45:01.850Z,7.89
2018-01-14T04:45:42.376Z,7.9
2018-01-14T04:46:22.926Z,7.93
2018-01-14T04:47:03.590Z,8.01
2018-01-14T04:47:44.118Z,8
2018-01-14T04:48:24.668Z,7.86
2018-01-14T04:49:05.136Z,7.87
2018-01-14T04:49:45.733Z,7.93
2018-01-14T04:50:26.244Z,7.83
2018-01-14T04:51:06.787Z,7.82
2018-01-14T04:51:47.302Z,7.9
2018-01-14T04:52:27.843Z,8.02
2018-01-14T04:53:08.395Z,7.97
2018-01-14T04:53:48.931Z,8.12
2018-01-14T04:54:29.493Z,8.1
2018-01-14T04:55:10.034Z,8.04
2018-01-14T04:55:50.631Z,7.93
2018-01-14T04:56:31.185Z,7.87
2018-01-14T04:57:11.726Z,7.8
2018-01-14T04:57:52.284Z,7.83
2018-01-14T04:58:32.812Z,7.86
2018-01-14T04:59:13.336Z,7.86
2018-01-14T04:59:53.858Z,7.83
2018-01-14T05:00:34.393Z,7.9
2018-01-14T05:01:14.932Z,7.92
2018-01-14T05:01:55.405Z,7.79
2018-01-14T05:02:35.950Z,7.69
2018-01-14T05:03:16.559Z,7.72
2018-01-14T05:03:57.104Z,7.85
2018-01-14T05:04:37.606Z,7.82
2018-01-14T05:05:18.211Z,7.77
2018-01-14T05:05:58.780Z,7.85
2018-01-14T05:06:39.321Z,7.89
2018-01-14T05:07:19.887Z,7.82
2018-01-14T05:08:00.416Z,7.83
2018-01-14T05:08:40.920Z,7.8
2018-01-14T05:09:21.450Z,7.85
2018-01-14T05:10:01.963Z,7.8
2018-01-14T05:10:42.487Z,7.77
2018-01-14T05:11:23.024Z,7.85
2018-01-14T05:12:03.587Z,7.89
2018-01-14T05:12:44.103Z,7.89
2018-01-14T05:13:24.704Z,7.89
2018-01-14T05:14:05.188Z,8
2018-01-14T05:14:45.699Z,7.92
2018-01-14T05:15:26.300Z,7.89
2018-01-14T05:16:06.793Z,7.95
2018-01-14T05:16:47.393Z,7.89
2018-01-14T05:17:27.907Z,7.87
2018-01-14T05:18:08.538Z,7.9
2018-01-14T05:18:49.056Z,7.8
2018-01-14T05:19:29.548Z,7.8
2018-01-14T05:20:10.125Z,7.85
2018-01-14T05:20:50.636Z,7.97
2018-01-14T05:21:31.195Z,7.89
2018-01-14T05:22:11.717Z,7.9
2018-01-14T05:22:52.238Z,7.71
2018-01-14T05:23:32.811Z,7.79
2018-01-14T05:24:13.347Z,7.77
2018-01-14T05:24:53.877Z,7.79
2018-01-14T05:25:34.563Z,7.85
2018-01-14T05:26:15.142Z,7.9
2018-01-14T05:26:55.618Z,7.86
2018-01-14T05:27:36.162Z,7.85
2018-01-14T05:28:16.709Z,7.92
2018-01-14T05:28:57.235Z,7.97
2018-01-14T05:29:37.779Z,7.86
2018-01-14T05:30:18.284Z,7.86
2018-01-14T05:30:58.843Z,7.92
2018-01-14T05:31:39.331Z,8.02
2018-01-14T05:32:19.919Z,7.95
2018-01-14T05:33:00.437Z,7.97
2018-01-14T05:33:41.003Z,8.01
2018-01-14T05:34:21.513Z,7.98
2018-01-14T05:35:02.111Z,8.1
2018-01-14T05:35:42.637Z,8.05
2018-01-14T05:36:23.213Z,7.89
2018-01-14T05:37:03.737Z,7.89
2018-01-14T05:37:44.438Z,7.82
2018-01-14T05:38:24.917Z,7.85
2018-01-14T05:39:05.473Z,8.01
2018-01-14T05:39:45.982Z,7.9
2018-01-14T05:40:26.545Z,7.89
2018-01-14T05:41:07.085Z,8.02
2018-01-14T05:41:47.629Z,8.01
2018-01-14T05:42:28.240Z,8.02
2018-01-14T05:43:08.768Z,7.87
2018-01-14T05:43:49.327Z,7.82
2018-01-14T05:44:29.820Z,7.89
2018-01-14T05:45:10.438Z,7.83
2018-01-14T05:45:50.926Z,7.85
2018-01-14T05:46:31.501Z,7.8
2018-01-14T05:47:12.024Z,7.71
2018-01-14T05:47:52.549Z,7.79
2018-01-14T05:48:33.148Z,7.92
2018-01-14T05:49:13.656Z,7.9
2018-01-14T05:49:54.183Z,7.89
2018-01-14T05:50:34.694Z,7.9
2018-01-14T05:51:15.188Z,7.69
2018-01-14T05:51:55.747Z,7.67
2018-01-14T05:52:36.284Z,7.52
2018-01-14T05:53:16.809Z,7.67
2018-01-14T05:53:57.410Z,7.79
2018-01-14T05:54:37.948Z,7.77
2018-01-14T05:55:18.459Z,7.82
2018-01-14T05:55:59.051Z,7.79
2018-01-14T05:56:39.613Z,7.79
2018-01-14T05:57:20.190Z,7.82
2018-01-14T05:58:00.650Z,7.74
2018-01-14T05:58:41.181Z,7.83
2018-01-14T05:59:21.701Z,7.89
2018-01-14T06:00:02.298Z,7.9
2018-01-14T06:00:42.833Z,7.97
2018-01-14T06:01:23.379Z,7.98
2018-01-14T06:02:03.914Z,8.07
2018-01-14T06:02:44.446Z,8.07
2018-01-14T06:03:24.978Z,8.08
2018-01-14T06:04:05.563Z,8.07
2018-01-14T06:04:46.051Z,8.07
2018-01-14T06:05:26.645Z,8.04
2018-01-14T06:06:07.169Z,8.11
2018-01-14T06:06:47.716Z,8.1
2018-01-14T06:07:28.228Z,8.01
2018-01-14T06:08:08.763Z,7.97
2018-01-14T06:08:49.324Z,8.05
2018-01-14T06:09:29.815Z,7.93
2018-01-14T06:10:10.507Z,7.93
2018-01-14T06:10:51.108Z,8.05
2018-01-14T06:11:31.664Z,8.02
2018-01-14T06:12:12.173Z,8.04
2018-01-14T06:12:52.691Z,8.01
2018-01-14T06:13:33.243Z,8.08
2018-01-14T06:14:13.748Z,8.05
2018-01-14T06:14:54.227Z,8.11
2018-01-14T06:15:34.804Z,8.22
2018-01-14T06:16:15.474Z,8.07
2018-01-14T06:16:55.985Z,8.05
2018-01-14T06:17:36.512Z,8.04
2018-01-14T06:18:17.101Z,8.07
2018-01-14T06:18:57.625Z,8.04
2018-01-14T06:19:38.114Z,8.02
2018-01-14T06:20:18.663Z,8.02
2018-01-14T06:20:59.318Z,8.07
2018-01-14T06:21:39.730Z,7.97
2018-01-14T06:22:20.319Z,8.04
2018-01-14T06:23:00.851Z,8.11
2018-01-14T06:23:41.386Z,8.11
2018-01-14T06:24:21.987Z,8.08
2018-01-14T06:25:02.461Z,8.05
2018-01-14T06:25:43.039Z,7.97
2018-01-14T06:26:23.575Z,7.9
2018-01-14T06:27:04.069Z,8.01
2018-01-14T06:27:44.626Z,8.04
2018-01-14T06:28:25.187Z,8.01
2018-01-14T06:29:05.670Z,8.07
2018-01-14T06:29:46.186Z,8.1
2018-01-14T06:30:26.715Z,8.05
2018-01-14T06:31:07.312Z,8.04
2018-01-14T06:31:47.808Z,8.08
2018-01-14T06:32:28.304Z,8.1
2018-01-14T06:33:08.849Z,8.05
2018-01-14T06:33:49.366Z,8.08
2018-01-14T06:34:29.926Z,8.05
2018-01-14T06:35:10.475Z,8.1
2018-01-14T06:35:51.022Z,8.08
2018-01-14T06:36:31.593Z,8.05
2018-01-14T06:37:12.120Z,8.1
2018-01-14T06:37:52.712Z,8.08
2018-01-14T06:38:33.220Z,8.05
2018-01-14T06:39:13.760Z,8.12
2018-01-14T06:39:54.276Z,7.98
2018-01-14T06:40:34.868Z,8
2018-01-14T06:41:15.338Z,8.07
2018-01-14T06:41:55.937Z,7.97
2018-01-14T06:42:36.423Z,8.15
2018-01-14T06:43:17.051Z,8.16
2018-01-14T06:43:57.619Z,8.07
2018-01-14T06:44:38.141Z,8.12
2018-01-14T06:45:18.680Z,8.02
2018-01-14T06:45:59.197Z,8.02
2018-01-14T06:46:39.734Z,8.07
2018-01-14T06:47:20.281Z,8.08
2018-01-14T06:48:00.842Z,8.11
2018-01-14T06:48:41.378Z,8.01
2018-01-14T06:49:21.941Z,8.04
2018-01-14T06:50:02.573Z,7.97
2018-01-14T06:50:43.112Z,8.08
2018-01-14T06:51:23.662Z,7.9
2018-01-14T06:52:04.173Z,7.89
2018-01-14T06:52:44.704Z,8.04
2018-01-14T06:53:25.234Z,8.04
2018-01-14T06:54:05.763Z,8.01
2018-01-14T06:54:46.343Z,7.97
2018-01-14T06:55:26.866Z,8.11
2018-01-14T06:56:07.445Z,8.05
2018-01-14T06:56:47.964Z,8.08
2018-01-14T06:57:28.470Z,8.07
2018-01-14T06:58:09.007Z,8.12
2018-01-14T06:58:49.558Z,8.05
2018-01-14T06:59:30.065Z,8.01
2018-01-14T07:00:10.677Z,8.12
2018-01-14T07:00:51.184Z,8.16
2018-01-14T07:01:31.781Z,8.26
2018-01-14T07:02:12.297Z,8.22
2018-01-14T07:02:52.832Z,8.16
2018-01-14T07:03:33.398Z,8.15
2018-01-14T07:04:13.948Z,8.23
2018-01-14T07:04:54.465Z,8.29
2018-01-14T07:05:35.061Z,8.25
2018-01-14T07:06:15.536Z,8.2
2018-01-14T07:06:56.153Z,8.16
2018-01-14T07:07:36.674Z,8.1
2018-01-14T07:08:17.187Z,8.05
2018-01-14T07:08:57.705Z,8.05
2018-01-14T07:09:38.255Z,8.22
2018-01-14T07:10:18.799Z,8.11
2018-01-14T07:10:59.344Z,8.12
2018-01-14T07:11:39.908Z,8.16
2018-01-14T07:12:20.521Z,8.08
2018-01-14T07:13:01.035Z,8.19
2018-01-14T07:13:41.626Z,8.12
2018-01-14T07:14:22.154Z,8.19
2018-01-14T07:15:02.773Z,8.26
2018-01-14T07:15:43.312Z,8.22
2018-01-14T07:16:23.862Z,8.12
2018-01-14T07:17:04.493Z,8.08
2018-01-14T07:17:45.172Z,8.25
2018-01-14T07:19:50.170Z,8.25
2018-01-14T07:20:38.775Z,8.25
2018-01-14T07:21:23.243Z,8.28
2018-01-14T07:22:11.784Z,8.12
2018-01-14T07:23:00.823Z,8.25
2018-01-14T07:23:52.621Z,8.33
2018-01-14T07:24:29.747Z,8.3
2018-01-14T07:25:10.278Z,8.18
2018-01-14T07:25:50.831Z,8.25
2018-01-14T07:26:31.405Z,8.36
2018-01-14T07:27:11.940Z,8.34
2018-01-14T07:27:52.538Z,8.36
2018-01-14T07:28:33.011Z,8.3
2018-01-14T07:29:13.565Z,8.38
2018-01-14T07:29:54.062Z,8.26
2018-01-14T07:30:34.721Z,8.25
2018-01-14T07:31:16.118Z,8.12
2018-01-14T07:31:56.648Z,8.16
2018-01-14T07:32:37.194Z,8.22
2018-01-14T07:33:18.054Z,8.26
2018-01-14T07:33:58.625Z,8.2
2018-01-14T07:34:39.135Z,8.19
2018-01-14T07:35:19.671Z,8.08
2018-01-14T07:36:00.311Z,8.08
2018-01-14T07:36:42.264Z,8.08
2018-01-14T07:37:28.795Z,8.19
2018-01-14T07:38:09.892Z,8.15
2018-01-14T07:38:52.869Z,8.22
2018-01-14T07:39:33.425Z,8.1
2018-01-14T07:40:13.945Z,8.05
2018-01-14T07:40:54.486Z,8.2
2018-01-14T07:41:35.064Z,8.15
2018-01-14T07:58:07.992Z,8.38
2018-01-14T07:58:56.736Z,8.38
2018-01-14T07:59:48.058Z,8.45
2018-01-14T08:00:52.561Z,8.48
2018-01-14T08:01:43.145Z,8.63
2018-01-14T08:02:30.916Z,8.56
2018-01-14T08:03:21.712Z,8.55
2018-01-14T08:04:15.322Z,8.58
2018-01-14T08:05:02.791Z,8.53
2018-01-14T08:06:59.566Z,8.47
2018-01-14T08:07:50.971Z,8.52
2018-01-14T08:08:47.397Z,8.45
2018-01-14T08:09:37.202Z,8.62
2018-01-14T08:15:36.511Z,8.59
2018-01-14T08:16:28.660Z,8.52
2018-01-14T08:17:16.804Z,8.3
2018-01-14T08:19:22.030Z,8.29
2018-01-14T08:20:11.085Z,8.43
2018-01-14T08:21:02.196Z,8.43
2018-01-14T08:21:54.396Z,8.36
2018-01-14T08:22:41.576Z,8.28
2018-01-14T08:23:36.916Z,8.34
2018-01-14T08:24:17.905Z,8.4
2018-01-14T08:24:58.735Z,8.44
2018-01-14T08:25:39.447Z,8.53
2018-01-14T08:26:20.597Z,8.61
2018-01-14T08:27:05.945Z,8.63
2018-01-14T08:41:39.547Z,8.94
2018-01-14T08:42:30.912Z,8.83
2018-01-14T08:43:22.091Z,8.87
2018-01-14T08:45:41.514Z,8.8
2018-01-14T08:46:27.835Z,8.7
2018-01-14T08:47:16.505Z,8.76
2018-01-14T08:48:00.883Z,8.71
2018-01-14T08:48:41.711Z,8.74
2018-01-14T08:49:24.053Z,8.83
2018-01-14T08:50:04.663Z,8.86
2018-01-14T08:50:45.407Z,8.84
2018-01-14T08:51:26.048Z,8.84
2018-01-14T08:52:06.695Z,8.79
2018-01-14T08:52:47.305Z,8.86
2018-01-14T08:53:27.984Z,8.89
2018-01-14T08:54:10.835Z,8.92
2018-01-14T09:03:55.645Z,8.73
2018-01-14T09:04:39.210Z,8.71
2018-01-14T09:05:30.435Z,8.65
2018-01-14T09:06:14.951Z,8.79
2018-01-14T09:06:58.286Z,8.92
2018-01-14T09:07:42.186Z,8.95
2018-01-14T09:08:24.649Z,8.99
2018-01-14T09:09:06.747Z,8.98
2018-01-14T09:09:47.792Z,9.08
2018-01-14T09:10:29.439Z,8.98
2018-01-14T09:11:11.086Z,8.84
2018-01-14T09:11:53.482Z,8.91
2018-01-14T09:12:34.414Z,8.84
2018-01-14T09:13:15.209Z,8.98
2018-01-14T09:13:55.828Z,8.92
2018-01-14T09:14:36.459Z,8.98
2018-01-14T09:15:17.582Z,8.79
2018-01-14T09:15:58.680Z,8.81
2018-01-14T09:16:40.575Z,8.96
2018-01-14T09:17:22.772Z,9.04
2018-01-14T09:27:45.579Z,9.05
2018-01-14T09:28:26.453Z,9.14
2018-01-14T09:29:07.055Z,9.15
2018-01-14T09:29:47.591Z,9.11
2018-01-14T09:30:28.111Z,9.13
2018-01-14T09:31:08.655Z,9.02
2018-01-14T09:31:49.209Z,8.84
2018-01-14T09:32:29.804Z,8.83
2018-01-14T09:33:10.303Z,8.76
2018-01-14T09:33:50.829Z,8.7
2018-01-14T09:34:31.337Z,8.84
2018-01-14T09:35:11.909Z,8.56
2018-01-14T09:35:52.519Z,8.7
2018-01-14T09:36:33.068Z,8.84
2018-01-14T09:37:13.605Z,8.91
2018-01-14T09:37:54.115Z,8.87
2018-01-14T09:38:34.652Z,8.84
2018-01-14T09:39:15.232Z,8.92
2018-01-14T09:39:55.864Z,9.02
2018-01-14T09:40:36.588Z,8.95
2018-01-14T09:41:17.205Z,8.98
2018-01-14T09:41:57.687Z,8.96
2018-01-14T09:42:38.307Z,8.95
2018-01-14T09:43:18.906Z,8.99
2018-01-14T09:43:59.435Z,9.1
2018-01-14T09:44:39.987Z,9.1
2018-01-14T09:45:20.515Z,8.99
2018-01-14T09:46:01.236Z,8.99
2018-01-14T09:46:41.795Z,8.96
2018-01-14T09:47:22.354Z,8.98
2018-01-14T09:48:05.393Z,9.02
2018-01-14T09:48:48.227Z,8.91
2018-01-14T09:49:26.781Z,8.92
2018-01-14T09:50:07.352Z,8.94
2018-01-14T09:50:47.852Z,8.87
2018-01-14T09:51:28.382Z,8.83
2018-01-14T09:52:08.997Z,8.95
2018-01-14T09:52:49.534Z,8.91
2018-01-14T09:53:30.168Z,8.86
2018-01-14T09:54:10.576Z,8.95
2018-01-14T09:54:51.166Z,8.84
2018-01-14T09:55:31.729Z,8.98
2018-01-14T09:56:12.273Z,9.05
2018-01-14T09:56:52.816Z,9.02
2018-01-14T09:57:33.424Z,9.14
2018-01-14T09:58:14.049Z,8.98
2018-01-14T09:58:54.535Z,9.04
2018-01-14T09:59:35.059Z,9.13
2018-01-14T10:00:15.606Z,9.14
2018-01-14T10:00:56.356Z,9.08
2018-01-14T10:01:39.550Z,9.14
2018-01-14T10:02:20.114Z,9.26
2018-01-14T10:03:00.633Z,9.29
2018-01-14T10:03:41.183Z,9.36
2018-01-14T10:04:21.725Z,9.39
2018-01-14T10:05:02.264Z,9.54
2018-01-14T10:05:42.798Z,9.39
2018-01-14T10:06:23.281Z,9.36
2018-01-14T10:07:03.985Z,9.43
2018-01-14T10:07:44.546Z,9.1
2018-01-14T10:08:25.108Z,9.02
2018-01-14T10:09:05.647Z,8.95
2018-01-14T10:09:46.179Z,8.99
2018-01-14T10:10:26.754Z,9.05
2018-01-14T10:11:07.286Z,9.21
2018-01-14T10:11:47.842Z,9.29
2018-01-14T10:12:28.475Z,9.38
2018-01-14T10:13:09.077Z,9.36
2018-01-14T10:13:49.667Z,9.39
2018-01-14T10:14:30.171Z,9.35
2018-01-14T10:15:10.787Z,9.38
2018-01-14T10:15:51.293Z,9.11
2018-01-14T10:16:31.824Z,9.1
2018-01-14T10:17:12.415Z,9.18
2018-01-14T10:17:53.153Z,9.32
2018-01-14T10:18:33.677Z,9.33
2018-01-14T10:19:14.237Z,9.48
2018-01-14T10:19:54.763Z,9.57
2018-01-14T10:20:35.368Z,9.58
2018-01-14T10:21:15.879Z,9.71
2018-01-14T10:21:56.393Z,9.68
2018-01-14T10:22:36.992Z,9.5
2018-01-14T10:23:17.527Z,9.6
2018-01-14T10:23:58.026Z,9.5
2018-01-14T10:24:38.896Z,9.43
2018-01-14T10:25:19.351Z,9.43
2018-01-14T10:25:59.909Z,9.46
2018-01-14T10:26:40.597Z,9.5
2018-01-14T10:27:21.135Z,9.47
2018-01-14T10:28:01.727Z,9.47
2018-01-14T10:28:42.216Z,9.39
2018-01-14T10:29:22.748Z,9.39
2018-01-14T10:30:03.301Z,9.39
2018-01-14T10:30:44.172Z,9.48
2018-01-14T10:31:25.437Z,9.54
2018-01-14T10:32:05.930Z,9.58
2018-01-14T10:32:46.449Z,9.58
2018-01-14T10:33:26.995Z,9.64
2018-01-14T10:34:07.514Z,9.68
2018-01-14T10:34:48.054Z,9.79
2018-01-14T10:35:28.756Z,9.75
2018-01-14T10:36:09.300Z,9.74
2018-01-14T10:36:50.027Z,9.79
2018-01-14T10:37:30.529Z,9.81
2018-01-14T10:38:11.153Z,9.81
2018-01-14T10:38:51.687Z,9.78
2018-01-14T10:39:32.223Z,9.84
2018-01-14T10:40:12.842Z,9.93
2018-01-14T10:40:53.908Z,9.87
2018-01-14T10:41:34.553Z,9.94
2018-01-14T10:42:15.158Z,9.87
2018-01-14T10:42:55.652Z,9.93
2018-01-14T10:43:36.207Z,10.01
2018-01-14T10:44:17.959Z,10.05
2018-01-14T10:44:58.706Z,10.07
2018-01-14T10:45:39.705Z,9.99
2018-01-14T10:46:20.193Z,9.81
2018-01-14T10:47:00.804Z,9.72
2018-01-14T10:47:42.057Z,9.99
2018-01-14T10:48:22.592Z,9.72
2018-01-14T10:49:03.127Z,9.99
2018-01-14T10:49:43.650Z,9.93
2018-01-14T10:50:24.223Z,9.9
2018-01-14T10:51:04.862Z,10.07
2018-01-14T10:51:45.324Z,9.97
2018-01-14T10:52:25.806Z,10.02
2018-01-14T10:53:06.384Z,10.08
2018-01-14T10:53:47.326Z,10.11
2018-01-14T10:54:27.832Z,10.07
2018-01-14T10:55:16.890Z,9.99
2018-01-14T10:57:27.915Z,9.93
2018-01-14T10:58:09.233Z,9.81
2018-01-14T10:59:47.210Z,9.81
2018-01-14T11:00:28.315Z,9.75
2018-01-14T11:01:08.867Z,9.86
2018-01-14T11:01:49.372Z,9.86
2018-01-14T11:02:29.918Z,9.81
2018-01-14T11:03:10.784Z,9.87
2018-01-14T11:03:51.480Z,9.86
2018-01-14T11:04:32.209Z,9.94
2018-01-14T11:05:12.736Z,9.87
2018-01-14T11:05:53.353Z,9.93
2018-01-14T11:06:33.947Z,9.99
2018-01-14T11:07:14.513Z,9.83
2018-01-14T11:07:59.233Z,9.79
2018-01-14T11:11:22.948Z,9.9
2018-01-14T11:13:03.840Z,9.75
2018-01-14T11:13:44.177Z,9.79
2018-01-14T11:14:24.696Z,9.93
2018-01-14T11:15:05.936Z,9.97
2018-01-14T11:15:46.762Z,9.96
2018-01-14T11:16:29.516Z,10.04
2018-01-14T11:17:10.342Z,10.07
2018-01-14T11:17:51.429Z,10.01
2018-01-14T11:18:32.150Z,10.18
2018-01-14T11:19:13.063Z,9.93
2018-01-14T11:19:56.841Z,9.83
2018-01-14T11:20:47.505Z,9.87
2018-01-14T11:22:34.529Z,9.89
2018-01-14T11:24:40.713Z,9.94
2018-01-14T11:25:21.619Z,9.93
2018-01-14T11:26:02.150Z,9.86
2018-01-14T11:26:42.695Z,9.83
2018-01-14T11:27:23.267Z,9.91
2018-01-14T11:28:03.820Z,9.93
2018-01-14T11:28:44.388Z,10.04
2018-01-14T11:29:24.993Z,10.09
2018-01-14T11:30:05.590Z,10.08
2018-01-14T11:30:46.218Z,10.17
2018-01-14T11:31:27.008Z,10.11
2018-01-14T11:32:07.465Z,10.08
2018-01-14T11:32:48.226Z,10.05
2018-01-14T11:33:28.806Z,10.11
2018-01-14T11:34:09.456Z,10.17
2018-01-14T11:34:50.014Z,10.15
2018-01-14T11:35:30.570Z,10.15
2018-01-14T11:36:11.109Z,10.22
2018-01-14T11:36:51.673Z,10.17
2018-01-14T11:37:32.261Z,10.15
2018-01-14T11:38:12.827Z,9.91
2018-01-14T11:38:53.398Z,10.02
2018-01-14T11:39:34.003Z,9.97
2018-01-14T11:40:14.538Z,9.9
2018-01-14T11:40:55.089Z,9.94
2018-01-14T11:41:35.655Z,10.12
2018-01-14T11:42:16.184Z,9.93
2018-01-14T11:42:56.743Z,9.84
2018-01-14T11:43:37.264Z,9.76
2018-01-14T11:44:17.808Z,9.79
2018-01-14T11:44:58.398Z,9.83
2018-01-14T11:45:38.938Z,9.94
2018-01-14T11:46:19.469Z,9.93
2018-01-14T11:47:00.055Z,10.01
2018-01-14T11:47:40.641Z,10.07
2018-01-14T11:48:21.244Z,10.18
2018-01-14T11:49:01.932Z,10.17
2018-01-14T11:49:42.476Z,10.02
2018-01-14T11:50:23.150Z,9.83
2018-01-14T11:51:03.874Z,9.74
2018-01-14T11:51:44.483Z,9.79
2018-01-14T11:52:25.065Z,9.74
2018-01-14T11:53:05.628Z,9.68
2018-01-14T11:53:46.155Z,9.66
2018-01-14T11:54:26.705Z,9.81
2018-01-14T11:55:07.449Z,9.83
2018-01-14T11:55:47.841Z,9.74
2018-01-14T11:56:28.579Z,9.71
2018-01-14T11:57:09.118Z,9.6
2018-01-14T11:57:49.677Z,9.74
2018-01-14T11:58:30.250Z,9.72
2018-01-14T11:59:10.782Z,9.79
2018-01-14T11:59:51.338Z,9.81
2018-01-14T12:00:31.892Z,9.78
2018-01-14T12:01:12.559Z,9.84
2018-01-14T12:01:53.172Z,9.84
2018-01-14T12:02:33.765Z,9.83
2018-01-14T12:03:14.336Z,9.81
2018-01-14T12:03:54.942Z,9.97
2018-01-14T12:04:35.600Z,9.9
2018-01-14T12:05:16.211Z,9.96
2018-01-14T12:05:56.793Z,10.05
2018-01-14T12:06:37.342Z,10.07
2018-01-14T12:07:17.905Z,10.07
2018-01-14T12:07:58.494Z,9.97
2018-01-14T12:08:38.996Z,10.02
2018-01-14T12:09:19.625Z,10.04
2018-01-14T12:10:00.239Z,10.14
2018-01-14T12:10:40.797Z,10.15
2018-01-14T12:11:21.411Z,10.18
2018-01-14T12:12:02.034Z,10.18
2018-01-14T12:12:42.642Z,10.11
2018-01-14T12:13:23.253Z,10.11
2018-01-14T12:14:03.842Z,10.12
2018-01-14T12:14:44.554Z,10.3
2018-01-14T12:15:25.157Z,10.32
2018-01-14T12:16:05.687Z,10.34
2018-01-14T12:16:46.592Z,10.32
2018-01-14T12:17:27.275Z,10.33
2018-01-14T12:18:07.933Z,10.42
2018-01-14T12:18:48.532Z,10.45
2018-01-14T12:19:29.269Z,10.4
2018-01-14T12:20:10.051Z,10.53
2018-01-14T12:20:50.788Z,10.51
2018-01-14T12:21:31.199Z,10.04
2018-01-14T12:22:13.600Z,10.18
2018-01-14T12:22:54.145Z,10.27
2018-01-14T12:23:35.067Z,10.33
2018-01-14T12:24:15.806Z,10.41
2018-01-14T12:24:56.309Z,10.29
2018-01-14T12:25:37.249Z,10.36
2018-01-14T12:26:21.227Z,10.33
2018-01-14T12:27:01.958Z,10.27
2018-01-14T12:27:42.629Z,10.29
2018-01-14T12:28:23.411Z,10.08
2018-01-14T12:29:05.634Z,10.11
2018-01-14T12:29:46.300Z,9.94
2018-01-14T12:30:27.879Z,9.86
2018-01-14T12:31:08.538Z,9.72
2018-01-14T12:31:49.095Z,9.65
2018-01-14T12:32:32.921Z,9.68
2018-01-14T12:34:22.067Z,9.72
2018-01-14T12:35:02.947Z,9.91
2018-01-14T12:35:43.645Z,10.01
2018-01-14T12:36:24.255Z,10.11
2018-01-14T12:37:04.823Z,10.23
2018-01-14T12:37:45.460Z,10.15
2018-01-14T12:38:26.015Z,10.3
2018-01-14T12:39:06.689Z,10.36
2018-01-14T12:39:47.251Z,10.3
2018-01-14T12:40:27.841Z,10.18
2018-01-14T12:41:08.926Z,10.25
2018-01-14T12:41:49.657Z,10.22
2018-01-14T12:42:30.167Z,9.94
2018-01-14T12:43:10.678Z,9.93
2018-01-14T12:43:51.386Z,10.09
2018-01-14T12:44:31.948Z,9.97
2018-01-14T12:45:12.487Z,10.05
2018-01-14T12:45:53.045Z,10.02
2018-01-14T12:46:33.577Z,9.99
2018-01-14T12:47:14.095Z,9.97
2018-01-14T12:47:54.642Z,9.99
2018-01-14T12:48:35.187Z,9.83
2018-01-14T12:49:15.716Z,9.86
2018-01-14T12:49:56.270Z,9.9
2018-01-14T12:50:36.797Z,10.01
2018-01-14T12:51:17.334Z,9.96
2018-01-14T12:51:57.859Z,10.02
2018-01-14T12:52:38.404Z,9.9
2018-01-14T12:53:18.933Z,9.84
2018-01-14T12:53:59.944Z,9.76
2018-01-14T12:54:40.490Z,9.74
2018-01-14T12:55:21.366Z,9.78
2018-01-14T12:56:02.628Z,9.79
2018-01-14T12:56:43.210Z,9.99
2018-01-14T12:57:23.730Z,9.9
2018-01-14T12:58:04.249Z,10.09
2018-01-14T12:58:44.874Z,9.93
2018-01-14T12:59:25.402Z,9.75